createdAt,value
2022-08-17T08:27:49.752Z,100851.25
2022-08-17T08:30:44.959Z,100858.53
2022-08-17T08:34:09.234Z,100845.59
2022-08-17T08:37:34.755Z,100859.66
2022-08-17T08:40:40.734Z,100839.94
2022-08-17T08:43:53.421Z,100837.81
2022-08-17T08:47:10.023Z,100847.75
2022-08-17T08:50:37.506Z,100852.19
2022-08-17T08:53:51.908Z,100851.34
2022-08-17T08:57:11.614Z,100860.16
2022-08-17T08:59:57.966Z,100855.97
2022-08-17T09:03:08.737Z,100854.50
2022-08-17T09:06:32.283Z,100856.81
2022-08-17T09:09:38.974Z,100849.81
2022-08-17T09:12:53.097Z,100852.03
2022-08-17T09:15:44.956Z,100843.78
2022-08-17T09:19:00.582Z,100850.88
2022-08-17T09:22:24.090Z,100846.03
2022-08-17T09:25:17.303Z,100849.88
2022-08-17T09:28:13.657Z,100851.59
2022-08-17T09:31:04.161Z,100854.97
2022-08-17T09:33:51.265Z,100851.97
2022-08-17T09:36:56.295Z,100846.50
2022-08-17T09:39:50.504Z,100841.22
2022-08-17T09:42:55.969Z,100839.09
2022-08-17T09:45:50.706Z,100836.63
2022-08-17T09:48:41.644Z,100839.25
2022-08-17T09:51:40.009Z,100839.44
2022-08-17T09:54:39.822Z,100845.56
2022-08-17T09:57:54.290Z,100840.81
2022-08-17T10:00:50.661Z,100835.78
2022-08-17T10:03:58.154Z,100827.22
2022-08-17T10:06:58.602Z,100828.69
2022-08-17T10:09:57.650Z,100834.25
2022-08-17T10:13:03.982Z,100830.69
2022-08-17T10:16:28.491Z,100832.94
2022-08-17T10:19:39.080Z,100833.59
2022-08-17T10:22:56.448Z,100826.25
2022-08-17T10:26:07.223Z,100829.69
2022-08-17T10:28:58.661Z,100827.56
2022-08-17T10:31:51.467Z,100831.88
2022-08-17T10:34:52.423Z,100825.66
2022-08-17T10:37:53.257Z,100808.53
2022-08-17T10:40:50.567Z,100825.81
2022-08-17T10:44:36.679Z,100816.97
2022-08-17T10:47:12.662Z,100818.06
2022-08-17T10:50:38.425Z,100818.81
2022-08-17T10:53:33.006Z,100814.38
2022-08-17T10:56:21.697Z,100821.78
2022-08-17T10:59:07.565Z,100818.22
2022-08-17T11:02:04.029Z,100814.00
2022-08-17T11:05:07.367Z,100801.50
2022-08-17T11:08:12.851Z,100803.47
2022-08-17T11:11:35.862Z,100794.66
2022-08-17T11:14:27.198Z,100793.44
2022-08-17T11:17:30.173Z,100790.16
2022-08-17T11:20:39.316Z,100783.91
2022-08-17T11:24:05.040Z,100772.00
2022-08-17T11:27:21.870Z,100782.53
2022-08-17T11:30:40.842Z,100776.50
2022-08-17T11:33:29.293Z,100787.03
2022-08-17T11:36:52.381Z,100783.28
2022-08-17T11:39:56.663Z,100771.34
2022-08-17T11:43:00.168Z,100773.00
2022-08-17T11:46:51.822Z,100773.34
2022-08-17T11:50:15.301Z,100760.13
2022-08-17T11:53:01.128Z,100758.69
2022-08-17T11:55:52.495Z,100757.69
2022-08-17T11:58:42.987Z,100757.22
2022-08-17T12:01:32.244Z,100753.09
2022-08-17T12:04:28.391Z,100759.88
2022-08-17T12:07:18.949Z,100756.00
2022-08-17T12:10:05.838Z,100745.28
2022-08-17T12:12:53.978Z,100734.16
2022-08-17T12:15:48.569Z,100754.25
2022-08-17T12:18:38.724Z,100748.78
2022-08-17T12:21:49.669Z,100745.47
2022-08-17T12:25:10.860Z,100742.41
2022-08-17T12:28:06.003Z,100746.13
2022-08-17T12:30:54.107Z,100739.13
2022-08-17T12:33:44.472Z,100739.84
2022-08-17T12:36:30.641Z,100728.31
2022-08-17T12:39:25.074Z,100727.16
2022-08-17T12:42:23.440Z,100722.84
2022-08-17T12:45:24.782Z,100713.50
2022-08-17T12:48:21.898Z,100709.00
2022-08-17T12:51:08.836Z,100707.94
2022-08-17T12:53:55.436Z,100703.09
2022-08-17T12:56:45.872Z,100700.84
2022-08-17T12:59:33.313Z,100703.78
2022-08-17T13:02:29.888Z,100694.94
2022-08-17T13:05:23.972Z,100699.13
2022-08-17T13:08:33.484Z,100695.53
2022-08-17T13:11:24.008Z,100694.50
2022-08-17T13:14:10.545Z,100693.09
2022-08-17T13:17:01.722Z,100693.78
2022-08-17T13:19:50.576Z,100688.88
2022-08-17T13:22:36.309Z,100669.88
2022-08-17T13:25:21.795Z,100677.03
2022-08-17T13:28:36.180Z,100679.84
2022-08-17T13:31:40.244Z,100673.28
2022-08-17T13:35:12.537Z,100674.63
2022-08-17T13:38:01.499Z,100673.91
2022-08-17T13:40:52.885Z,100666.66
2022-08-17T13:43:45.808Z,100668.81
2022-08-17T13:46:33.001Z,100669.53
2022-08-17T13:49:20.897Z,100659.09
2022-08-17T13:52:07.867Z,100654.63
2022-08-17T13:54:55.689Z,100654.94
2022-08-17T13:57:46.419Z,100648.06
2022-08-17T14:00:33.660Z,100645.78
2022-08-17T14:03:20.323Z,100640.72
2022-08-17T14:06:06.045Z,100644.66
2022-08-17T14:08:54.616Z,100636.22
2022-08-17T14:11:40.589Z,100632.38
2022-08-17T14:14:26.753Z,100642.25
2022-08-17T14:17:12.672Z,100626.34
2022-08-17T14:19:59.405Z,100630.59
2022-08-17T14:22:49.409Z,100637.81
2022-08-17T14:25:35.219Z,100631.34
2022-08-17T14:28:20.681Z,100624.81
2022-08-17T14:31:08.334Z,100623.50
2022-08-17T14:33:53.837Z,100612.03
2022-08-17T14:36:41.743Z,100610.56
2022-08-17T14:39:33.848Z,100591.25
2022-08-17T14:42:20.411Z,100609.56
2022-08-17T14:45:27.402Z,100616.72
2022-08-17T14:48:14.187Z,100610.34
2022-08-17T14:50:59.689Z,100602.16
2022-08-17T14:53:45.775Z,100609.03
2022-08-17T14:56:31.769Z,100613.53
2022-08-17T14:59:23.841Z,100602.16
2022-08-17T15:02:10.681Z,100615.63
2022-08-17T15:05:05.165Z,100615.50
2022-08-17T15:07:50.594Z,100616.56
2022-08-17T15:10:36.991Z,100614.09
2022-08-17T15:13:25.315Z,100613.00
2022-08-17T15:16:13.651Z,100605.56
2022-08-17T15:19:00.219Z,100610.03
2022-08-17T15:21:46.813Z,100610.75
2022-08-17T15:24:32.312Z,100605.66
2022-08-17T15:27:17.778Z,100606.97
2022-08-17T15:30:17.329Z,100603.63
2022-08-17T15:33:03.523Z,100606.47
2022-08-17T15:35:51.684Z,100600.34
2022-08-17T15:38:39.255Z,100588.94
2022-08-17T15:41:27.967Z,100589.56
2022-08-17T15:44:13.500Z,100586.69
2022-08-17T15:46:58.976Z,100584.78
2022-08-17T15:49:45.817Z,100593.94
2022-08-17T15:52:31.123Z,100581.25
2022-08-17T15:55:23.430Z,100578.69
2022-08-17T15:58:09.784Z,100576.72
2022-08-17T16:01:14.780Z,100567.19
2022-08-17T16:04:07.319Z,100563.38
2022-08-17T16:07:07.194Z,100562.06
2022-08-17T16:09:52.576Z,100562.78
2022-08-17T16:12:38.326Z,100564.19
2022-08-17T16:15:23.968Z,100564.16
2022-08-17T16:18:10.123Z,100561.16
2022-08-17T16:20:55.468Z,100560.19
2022-08-17T16:23:41.298Z,100556.59
2022-08-17T16:26:28.387Z,100562.22
2022-08-17T16:29:14.066Z,100553.47
2022-08-17T16:32:08.587Z,100546.28
2022-08-17T16:34:54.247Z,100550.47
2022-08-17T16:37:40.351Z,100550.47
2022-08-17T16:40:31.340Z,100562.84
2022-08-17T16:43:21.618Z,100553.75
2022-08-17T16:46:06.923Z,100543.59
2022-08-17T16:48:52.653Z,100552.13
2022-08-17T16:51:38.125Z,100544.28
2022-08-17T16:54:23.427Z,100545.84
2022-08-17T16:57:13.151Z,100554.19
2022-08-17T16:59:58.729Z,100549.50
2022-08-17T17:02:47.581Z,100547.50
2022-08-17T17:05:51.436Z,100548.34
2022-08-17T17:08:49.218Z,100559.38
2022-08-17T17:11:47.005Z,100562.72
2022-08-17T17:14:36.761Z,100558.34
2022-08-17T17:17:25.243Z,100563.50
2022-08-17T17:20:16.337Z,100554.19
2022-08-17T17:23:22.011Z,100555.47
2022-08-17T17:26:23.654Z,100560.34
2022-08-17T17:29:26.649Z,100591.03
2022-08-17T17:32:37.944Z,100632.16
2022-08-17T17:35:31.854Z,100630.50
2022-08-17T17:38:29.229Z,100652.03
2022-08-17T17:41:26.496Z,100654.22
2022-08-17T17:44:17.976Z,100659.34
2022-08-17T17:47:05.988Z,100677.59
2022-08-17T17:49:51.365Z,100679.13
2022-08-17T17:53:04.225Z,100671.72
2022-08-17T17:56:40.522Z,100669.00
2022-08-17T17:59:48.495Z,100667.25
2022-08-17T18:02:52.763Z,100664.19
2022-08-17T18:06:03.024Z,100670.47
2022-08-17T18:12:12.160Z,100666.91
2022-08-17T18:15:21.599Z,100668.03
2022-08-17T18:18:15.940Z,100664.66
2022-08-17T18:21:07.184Z,100657.72
2022-08-17T18:24:04.043Z,100669.19
2022-08-17T18:26:56.773Z,100674.69
2022-08-17T18:29:47.858Z,100681.31
2022-08-17T18:32:38.198Z,100676.91
2022-08-17T18:35:28.421Z,100697.00
2022-08-17T18:38:27.273Z,100706.41
2022-08-17T18:41:26.065Z,100711.88
2022-08-17T18:44:42.390Z,100710.25
2022-08-17T18:47:28.915Z,100696.09
2022-08-17T18:50:26.262Z,100708.56
2022-08-17T18:53:30.190Z,100704.56
2022-08-17T18:56:34.035Z,100701.50
2022-08-17T18:59:43.327Z,100697.91
2022-08-17T19:02:44.170Z,100697.09
2022-08-17T19:05:40.504Z,100698.38
2022-08-17T19:08:28.525Z,100703.91
2022-08-17T19:11:25.886Z,100699.50
2022-08-17T19:14:16.555Z,100692.47
2022-08-17T19:17:12.407Z,100698.41
2022-08-17T19:20:10.257Z,100715.34
2022-08-17T19:23:31.004Z,100709.31
2022-08-17T19:26:51.396Z,100700.47
2022-08-17T19:30:10.151Z,100705.25
2022-08-17T19:32:58.221Z,100703.41
2022-08-17T19:35:58.886Z,100696.78
2022-08-17T19:39:32.057Z,100702.16
2022-08-17T19:42:47.638Z,100699.72
2022-08-17T19:46:05.904Z,100703.59
2022-08-17T19:48:53.867Z,100696.88
2022-08-17T19:51:58.023Z,100702.81
2022-08-17T19:54:55.211Z,100698.19
2022-08-17T19:58:07.597Z,100686.41
2022-08-17T20:00:54.698Z,100680.50
2022-08-17T20:04:07.382Z,100678.13
2022-08-17T20:06:53.260Z,100670.50
2022-08-17T20:09:44.224Z,100668.69
2022-08-17T20:12:36.011Z,100684.88
2022-08-17T20:15:35.445Z,100671.41
2022-08-17T20:18:47.672Z,100682.66
2022-08-17T20:21:48.447Z,100683.94
2022-08-17T20:24:36.845Z,100680.91
2022-08-17T20:27:31.589Z,100678.50
2022-08-17T20:30:23.306Z,100696.47
2022-08-17T20:33:23.810Z,100686.50
2022-08-17T20:36:20.425Z,100692.72
2022-08-17T20:39:05.821Z,100692.28
2022-08-17T20:42:21.885Z,100703.22
2022-08-17T20:45:23.330Z,100703.75
2022-08-17T20:48:36.374Z,100705.72
2022-08-17T20:51:32.384Z,100699.53
2022-08-17T20:54:18.083Z,100708.50
2022-08-17T20:57:09.185Z,100710.63
2022-08-17T21:00:27.850Z,100708.66
2022-08-17T21:03:26.858Z,100705.56
2022-08-17T21:06:17.579Z,100701.22
2022-08-17T21:09:12.518Z,100700.38
2022-08-17T21:12:04.619Z,100706.28
2022-08-17T21:15:03.412Z,100699.25
2022-08-17T21:17:56.695Z,100709.63
2022-08-17T21:21:05.915Z,100705.97
2022-08-17T21:24:21.649Z,100718.75
2022-08-17T21:27:20.033Z,100712.41
2022-08-17T21:30:06.477Z,100712.56
2022-08-17T21:33:25.048Z,100711.31
2022-08-17T21:36:11.355Z,100716.63
2022-08-17T21:39:04.881Z,100713.09
2022-08-17T21:41:55.687Z,100714.63
2022-08-17T21:44:52.184Z,100710.13
2022-08-17T21:47:43.343Z,100724.94
2022-08-17T21:50:30.047Z,100732.81
2022-08-17T21:53:30.678Z,100718.84
2022-08-17T21:56:34.279Z,100722.38
2022-08-17T21:59:27.116Z,100717.38
2022-08-17T22:02:21.130Z,100720.88
2022-08-17T22:05:12.791Z,100718.19
2022-08-17T22:08:06.402Z,100726.19
2022-08-17T22:11:01.932Z,100720.38
2022-08-17T22:13:47.397Z,100723.25
2022-08-17T22:16:34.771Z,100721.31
2022-08-17T22:19:28.875Z,100704.63
2022-08-17T22:22:29.180Z,100724.97
2022-08-17T22:25:21.474Z,100716.13
2022-08-17T22:28:10.377Z,100713.28
2022-08-17T22:31:02.295Z,100720.06
2022-08-17T22:34:10.834Z,100711.25
2022-08-17T22:37:27.615Z,100716.63
2022-08-17T22:40:26.329Z,100726.41
2022-08-17T22:43:12.900Z,100733.16
2022-08-17T22:45:59.703Z,100725.84
2022-08-17T22:48:52.218Z,100730.13
2022-08-17T22:51:37.869Z,100737.16
2022-08-17T22:54:41.504Z,100733.50
2022-08-17T22:57:47.061Z,100744.47
2022-08-17T23:00:38.059Z,100739.72
2022-08-17T23:03:26.021Z,100735.84
2022-08-17T23:06:11.525Z,100738.81
2022-08-17T23:08:57.641Z,100734.53
2022-08-17T23:11:49.937Z,100738.19
2022-08-17T23:14:41.832Z,100730.59
2022-08-17T23:17:33.899Z,100729.13
2022-08-17T23:20:22.248Z,100728.78
2022-08-17T23:23:08.960Z,100721.22
2022-08-17T23:25:54.661Z,100726.84
2022-08-17T23:28:41.010Z,100729.56
2022-08-17T23:31:26.488Z,100733.06
2022-08-17T23:34:15.383Z,100730.84
2022-08-17T23:37:02.273Z,100731.97
2022-08-17T23:39:47.767Z,100725.59
2022-08-17T23:42:34.732Z,100730.53
2022-08-17T23:45:20.318Z,100734.69
2022-08-17T23:48:07.833Z,100729.94
2022-08-17T23:50:55.345Z,100736.28
2022-08-17T23:53:48.035Z,100743.56
2022-08-17T23:56:37.088Z,100716.75
2022-08-17T23:59:23.483Z,100742.59
